createdAt,value
2023-03-31T00:02:35.439Z,12.13
2023-03-31T00:14:35.324Z,12.11
2023-03-31T00:26:35.324Z,12.10
2023-03-31T00:38:36.009Z,12.08
2023-03-31T00:50:35.308Z,12.08
2023-03-31T01:02:35.358Z,12.07
2023-03-31T01:14:35.338Z,12.05
2023-03-31T01:26:35.309Z,12.05
2023-03-31T01:38:35.311Z,12.03
2023-03-31T01:50:35.347Z,12.02
2023-03-31T02:02:35.448Z,12.02
2023-03-31T02:14:35.311Z,12.00
2023-03-31T02:26:35.313Z,11.99
2023-03-31T02:38:35.426Z,11.98
2023-03-31T02:50:35.424Z,11.96
2023-03-31T03:02:35.543Z,11.96
2023-03-31T03:14:35.323Z,11.95
2023-03-31T03:26:35.442Z,11.94
2023-03-31T03:38:35.333Z,11.92
2023-03-31T03:50:35.325Z,11.91
2023-03-31T04:02:35.526Z,11.91
2023-03-31T04:14:35.422Z,11.89
2023-03-31T04:26:35.423Z,11.89
2023-03-31T04:38:35.331Z,11.87
2023-03-31T04:50:35.430Z,11.86
2023-03-31T05:02:35.402Z,11.85
2023-03-31T05:14:35.421Z,11.84
2023-03-31T05:26:35.371Z,11.83
2023-03-31T05:38:35.429Z,11.82
2023-03-31T05:50:35.441Z,11.80
2023-03-31T06:02:35.478Z,11.80
2023-03-31T06:14:35.321Z,11.79
2023-03-31T06:26:35.316Z,11.79
2023-03-31T06:38:35.429Z,11.78
2023-03-31T06:50:35.323Z,11.77
2023-03-31T07:02:35.442Z,11.79
2023-03-31T07:14:35.377Z,11.79
2023-03-31T07:26:35.318Z,11.80
2023-03-31T07:38:35.308Z,11.84
2023-03-31T07:50:35.400Z,11.85
2023-03-31T08:02:35.532Z,11.87
2023-03-31T08:14:41.148Z,11.87
2023-03-31T08:26:35.322Z,11.91
2023-03-31T08:38:35.331Z,12.00
2023-03-31T08:50:35.415Z,12.00
2023-03-31T09:02:35.558Z,11.98
2023-03-31T09:14:35.376Z,11.98
2023-03-31T09:26:35.426Z,12.04
2023-03-31T09:38:35.310Z,12.07
2023-03-31T09:50:35.349Z,12.12
2023-03-31T10:02:35.389Z,12.12
2023-03-31T10:14:35.315Z,12.17
2023-03-31T10:26:35.332Z,12.12
2023-03-31T10:38:35.321Z,12.25
2023-03-31T10:50:35.501Z,12.31
2023-03-31T11:02:35.443Z,12.26
2023-03-31T11:14:35.331Z,12.29
2023-03-31T11:26:35.333Z,12.32
2023-03-31T11:38:35.341Z,12.46
2023-03-31T11:50:35.329Z,12.50
2023-03-31T12:02:35.392Z,12.54
2023-03-31T12:14:35.374Z,12.59
2023-03-31T12:26:35.312Z,12.60
2023-03-31T12:38:35.434Z,12.61
2023-03-31T12:50:35.436Z,12.61
2023-03-31T13:02:35.415Z,12.61
2023-03-31T13:14:35.321Z,12.60
2023-03-31T13:26:35.308Z,12.60
2023-03-31T13:38:35.311Z,12.60
2023-03-31T13:50:35.372Z,12.60
2023-03-31T14:02:35.367Z,12.59
2023-03-31T14:14:35.395Z,12.59
2023-03-31T14:26:35.306Z,12.58
2023-03-31T14:38:35.372Z,12.58
2023-03-31T14:50:35.319Z,12.58
2023-03-31T15:02:35.462Z,12.57
2023-03-31T15:14:35.446Z,12.58
2023-03-31T15:26:41.648Z,12.57
2023-03-31T15:38:35.422Z,12.55
2023-03-31T15:50:35.405Z,12.55
2023-03-31T16:02:35.359Z,12.55
2023-03-31T16:14:35.304Z,12.54
2023-03-31T16:26:35.328Z,12.52
2023-03-31T16:38:35.419Z,12.51
2023-03-31T16:50:35.370Z,12.49
2023-03-31T17:02:35.412Z,12.49
2023-03-31T17:14:35.421Z,12.47
2023-03-31T17:26:35.310Z,12.46
2023-03-31T17:38:35.740Z,12.44
2023-03-31T17:50:35.424Z,12.43
2023-03-31T18:02:35.480Z,12.42
2023-03-31T18:14:35.413Z,12.39
2023-03-31T18:26:35.661Z,12.39
2023-03-31T18:38:35.389Z,12.37
2023-03-31T18:50:35.319Z,12.35
2023-03-31T19:02:35.537Z,12.34
2023-03-31T19:14:35.411Z,12.33
2023-03-31T19:26:35.317Z,12.32
2023-03-31T19:38:35.433Z,12.30
2023-03-31T19:50:35.425Z,12.29
2023-03-31T20:02:35.653Z,12.28
2023-03-31T20:14:35.330Z,12.27
2023-03-31T20:26:35.386Z,12.26
2023-03-31T20:38:35.410Z,12.25
2023-03-31T20:50:35.393Z,12.23
2023-03-31T21:02:35.499Z,12.23
2023-03-31T21:14:35.403Z,12.20
2023-03-31T21:26:35.505Z,12.20
2023-03-31T21:38:35.383Z,12.19
2023-03-31T21:50:35.440Z,12.18
2023-03-31T22:02:35.344Z,12.17
2023-03-31T22:14:35.423Z,12.15
2023-03-31T22:26:35.315Z,12.14
2023-03-31T22:38:35.424Z,12.13
2023-03-31T22:50:35.410Z,12.11
2023-03-31T23:02:35.446Z,12.11
2023-03-31T23:14:35.384Z,12.08
2023-03-31T23:26:35.330Z,12.09
2023-03-31T23:38:35.322Z,12.07
2023-03-31T23:50:35.364Z,12.06
